Albany, New York
Current Conditions -  °F | °C
As of 5:51 AM on Thursday 27 Nov 2014 (Local Time) from KALB Reporting Station
Overcast Overcast  
Wind Chill: 24°   Ceiling: 2400
Heat Index: 30°   Visibility: 10mi
Dew Point: 27°   Wind: 6mph
Humidity: 88%   Direction: 340°NNW
Pressure: 29.95"   Gusts: NA
Location:  42.65°N, 73.75°W
Report Text: KALB 271051Z 34005KT 10SM FEW008 OVC024 M01/M03 A2995 RMK AO2 SNE30 SLP144 P0000 T10111028
Loading
Personal Weather Stations






























Interactive Weather Map New forecast layout! Learn more

10-Day Weather Forecast

Advertisements
Track Severe Weather on mobile